createdAt,value
2023-03-27T00:00:44.649Z,0.00
2023-03-27T00:01:44.841Z,0.00
2023-03-27T00:02:45.056Z,0.00
2023-03-27T00:03:45.251Z,0.00
2023-03-27T00:04:45.412Z,0.00
2023-03-27T00:05:45.566Z,0.00
2023-03-27T00:06:45.730Z,0.00
2023-03-27T00:07:45.878Z,0.00
2023-03-27T00:08:46.025Z,0.00
2023-03-27T00:09:53.186Z,0.00
2023-03-27T00:10:46.415Z,0.00
2023-03-27T00:11:46.581Z,0.00
2023-03-27T00:12:46.723Z,0.00
2023-03-27T00:13:49.268Z,0.00
2023-03-27T00:14:47.049Z,0.00
2023-03-27T00:15:47.303Z,0.00
2023-03-27T00:16:47.519Z,0.00
2023-03-27T00:17:47.637Z,0.00
2023-03-27T00:18:47.752Z,0.00
2023-03-27T00:19:47.895Z,0.00
2023-03-27T00:20:48.058Z,0.00
2023-03-27T00:21:48.225Z,0.00
2023-03-27T00:22:48.389Z,0.00
2023-03-27T00:23:48.555Z,0.00
2023-03-27T00:24:48.702Z,0.00
2023-03-27T00:25:48.881Z,0.00
2023-03-27T00:26:49.063Z,0.00
2023-03-27T00:27:49.225Z,0.00
2023-03-27T00:28:49.368Z,0.00
2023-03-27T00:29:49.525Z,0.00
2023-03-27T00:30:49.732Z,0.00
2023-03-27T00:31:49.872Z,0.00
2023-03-27T00:32:50.033Z,0.00
2023-03-27T00:33:50.192Z,0.00
2023-03-27T00:34:50.330Z,0.00
2023-03-27T00:35:50.640Z,0.00
2023-03-27T00:36:50.797Z,0.00
2023-03-27T00:37:50.948Z,0.00
2023-03-27T00:38:51.104Z,0.00
2023-03-27T00:39:51.261Z,0.00
2023-03-27T00:40:51.421Z,0.00
2023-03-27T00:41:51.617Z,0.00
2023-03-27T00:42:51.751Z,0.00
2023-03-27T00:43:51.920Z,0.00
2023-03-27T00:44:52.085Z,0.00
2023-03-27T00:45:52.242Z,0.00
2023-03-27T00:46:52.385Z,0.00
2023-03-27T00:47:52.584Z,0.00
2023-03-27T00:48:52.740Z,0.00
2023-03-27T00:49:52.893Z,0.00
2023-03-27T00:50:53.056Z,0.00
2023-03-27T00:51:53.223Z,0.00
2023-03-27T00:52:53.401Z,0.00
2023-03-27T00:53:53.578Z,0.00
2023-03-27T00:54:53.724Z,0.00
2023-03-27T00:55:53.992Z,0.00
2023-03-27T00:56:54.206Z,0.00
2023-03-27T00:57:54.374Z,0.00
2023-03-27T00:58:54.535Z,0.00
2023-03-27T00:59:54.694Z,0.00
2023-03-27T01:00:55.266Z,0.00
2023-03-27T01:01:55.050Z,0.00
2023-03-27T01:02:55.279Z,0.00
2023-03-27T01:03:56.545Z,0.00
2023-03-27T01:04:55.673Z,0.00
2023-03-27T01:05:55.840Z,0.00
2023-03-27T01:06:56.023Z,0.00
2023-03-27T01:08:00.672Z,0.00
2023-03-27T01:08:57.410Z,0.00
2023-03-27T01:09:56.592Z,0.00
2023-03-27T01:10:56.914Z,0.00
2023-03-27T01:11:56.996Z,0.00
2023-03-27T01:12:57.156Z,0.00
2023-03-27T01:13:57.315Z,0.00
2023-03-27T01:14:57.477Z,0.00
2023-03-27T01:15:57.667Z,0.00
2023-03-27T01:16:57.828Z,0.00
2023-03-27T01:17:58.060Z,0.00
2023-03-27T01:18:58.140Z,0.00
2023-03-27T01:19:58.406Z,0.00
2023-03-27T01:20:58.579Z,0.00
2023-03-27T01:21:58.774Z,0.00
2023-03-27T01:22:58.940Z,0.00
2023-03-27T01:24:00.750Z,0.00
2023-03-27T01:24:59.284Z,0.00
2023-03-27T01:25:59.449Z,0.00
2023-03-27T01:26:59.615Z,0.00
2023-03-27T01:27:59.779Z,0.00
2023-03-27T01:28:59.930Z,0.00
2023-03-27T01:30:00.110Z,0.00
2023-03-27T01:31:00.279Z,0.00
2023-03-27T01:32:00.418Z,0.00
2023-03-27T01:33:00.604Z,0.00
2023-03-27T01:34:00.777Z,0.00
2023-03-27T01:35:03.497Z,0.00
2023-03-27T01:36:01.207Z,0.00
2023-03-27T01:37:01.350Z,0.00
2023-03-27T01:38:01.517Z,0.00
2023-03-27T01:39:01.736Z,0.00
2023-03-27T01:40:01.872Z,0.00
2023-03-27T01:41:02.025Z,0.00
2023-03-27T01:42:02.205Z,0.00
2023-03-27T01:43:02.356Z,0.00
2023-03-27T01:44:02.533Z,0.00
2023-03-27T01:45:02.707Z,0.00
2023-03-27T01:46:02.859Z,0.00
2023-03-27T01:47:03.049Z,0.00
2023-03-27T01:48:03.286Z,0.00
2023-03-27T01:49:03.412Z,0.00
2023-03-27T01:50:03.584Z,0.00
2023-03-27T01:51:03.735Z,0.00
2023-03-27T01:52:03.906Z,0.00
2023-03-27T01:53:04.073Z,0.00
2023-03-27T01:54:04.237Z,0.00
2023-03-27T01:55:04.381Z,0.00
2023-03-27T01:56:04.548Z,0.00
2023-03-27T01:57:04.742Z,0.00
2023-03-27T01:58:04.879Z,0.00
2023-03-27T01:59:05.037Z,0.00
2023-03-27T02:00:18.760Z,0.00
2023-03-27T02:01:06.549Z,0.00
2023-03-27T02:02:05.545Z,0.00
2023-03-27T02:03:05.775Z,0.00
2023-03-27T02:04:05.913Z,0.00
2023-03-27T02:05:06.076Z,0.00
2023-03-27T02:06:06.208Z,0.00
2023-03-27T02:07:06.381Z,0.00
2023-03-27T02:08:06.568Z,0.00
2023-03-27T02:09:06.709Z,0.00
2023-03-27T02:10:06.872Z,0.00
2023-03-27T02:11:07.028Z,0.00
2023-03-27T02:12:07.230Z,0.00
2023-03-27T02:13:07.366Z,0.00
2023-03-27T02:14:07.527Z,0.00
2023-03-27T02:15:23.288Z,0.00
2023-03-27T02:16:08.877Z,0.00
2023-03-27T02:17:08.038Z,0.00
2023-03-27T02:18:08.195Z,0.00
2023-03-27T02:19:08.346Z,0.00
2023-03-27T02:20:08.524Z,0.00
2023-03-27T02:21:08.677Z,0.00
2023-03-27T02:22:08.862Z,0.00
2023-03-27T02:23:09.008Z,0.00
2023-03-27T02:24:09.202Z,0.00
2023-03-27T02:25:09.350Z,0.00
2023-03-27T02:26:09.518Z,0.00
2023-03-27T02:27:09.736Z,0.00
2023-03-27T02:28:09.927Z,0.00
2023-03-27T02:29:10.084Z,0.00
2023-03-27T02:30:10.255Z,0.00
2023-03-27T02:31:32.720Z,0.00
2023-03-27T02:32:11.790Z,0.00
2023-03-27T02:33:10.851Z,0.00
2023-03-27T02:34:10.992Z,0.00
2023-03-27T02:35:11.162Z,0.00
2023-03-27T02:36:11.402Z,0.00
2023-03-27T02:37:11.542Z,0.00
2023-03-27T02:38:11.749Z,0.00
2023-03-27T02:39:11.906Z,0.00
2023-03-27T02:40:12.059Z,0.00
2023-03-27T02:41:12.220Z,0.00
2023-03-27T02:42:12.392Z,0.00
2023-03-27T02:43:12.567Z,0.00
2023-03-27T02:44:12.721Z,0.00
2023-03-27T02:45:12.894Z,0.00
2023-03-27T02:46:13.106Z,0.00
2023-03-27T02:47:13.247Z,0.00
2023-03-27T02:48:13.438Z,0.00
2023-03-27T02:49:13.597Z,0.00
2023-03-27T02:50:13.770Z,0.00
2023-03-27T02:51:14.496Z,0.00
2023-03-27T02:52:14.115Z,0.00
2023-03-27T02:53:14.300Z,0.00
2023-03-27T02:54:14.478Z,0.00
2023-03-27T02:55:14.658Z,0.00
2023-03-27T02:56:14.844Z,0.00
2023-03-27T02:57:15.159Z,0.00
2023-03-27T02:58:15.245Z,0.00
2023-03-27T02:59:15.475Z,0.00
2023-03-27T03:00:15.645Z,0.00
2023-03-27T03:01:15.842Z,0.00
2023-03-27T03:02:16.065Z,0.00
2023-03-27T03:03:16.373Z,0.00
2023-03-27T03:04:16.401Z,0.00
2023-03-27T03:05:16.591Z,0.00
2023-03-27T03:06:16.758Z,0.00
2023-03-27T03:07:16.954Z,0.00
2023-03-27T03:08:17.142Z,0.00
2023-03-27T03:09:17.324Z,0.00
2023-03-27T03:10:17.498Z,0.00
2023-03-27T03:11:17.682Z,0.00
2023-03-27T03:12:17.881Z,0.00
2023-03-27T03:13:18.066Z,0.00
2023-03-27T03:14:18.245Z,0.00
2023-03-27T03:15:18.451Z,0.00
2023-03-27T03:16:18.674Z,0.00
2023-03-27T03:17:18.824Z,0.00
2023-03-27T03:18:19.024Z,0.00
2023-03-27T03:19:19.197Z,0.00
2023-03-27T03:20:19.370Z,0.00
2023-03-27T03:21:19.535Z,0.00
2023-03-27T03:22:20.177Z,0.00
2023-03-27T03:23:19.944Z,0.00
2023-03-27T03:24:20.119Z,0.00
2023-03-27T03:25:20.294Z,0.00
2023-03-27T03:26:20.468Z,0.00
2023-03-27T03:27:20.657Z,0.00
2023-03-27T03:28:20.842Z,0.00
2023-03-27T03:29:21.036Z,0.00
2023-03-27T03:30:21.235Z,0.00
2023-03-27T03:31:21.409Z,0.00
2023-03-27T03:32:21.619Z,0.00
2023-03-27T03:33:21.784Z,0.00
2023-03-27T03:34:21.938Z,0.00
2023-03-27T03:35:22.216Z,0.00
2023-03-27T03:36:22.366Z,0.00
2023-03-27T03:37:22.562Z,0.00
2023-03-27T03:38:22.735Z,0.00
2023-03-27T03:39:22.926Z,0.00
2023-03-27T03:40:23.094Z,0.00
2023-03-27T03:41:23.271Z,0.00
2023-03-27T03:42:24.115Z,0.00
2023-03-27T03:43:23.680Z,0.00
2023-03-27T03:44:23.861Z,0.00
2023-03-27T03:45:24.045Z,0.00
2023-03-27T03:46:24.258Z,0.00
2023-03-27T03:47:24.459Z,0.00
2023-03-27T03:48:24.624Z,0.00
2023-03-27T03:49:24.805Z,0.00
2023-03-27T03:50:24.981Z,0.00
2023-03-27T03:51:25.162Z,0.00
2023-03-27T03:52:25.337Z,0.00
2023-03-27T03:53:25.530Z,0.00
2023-03-27T03:54:25.711Z,0.00
2023-03-27T03:55:25.906Z,0.00
2023-03-27T03:56:26.060Z,0.00
2023-03-27T03:57:26.234Z,0.00
2023-03-27T03:58:34.497Z,0.00
2023-03-27T03:59:27.571Z,0.00
2023-03-27T04:00:26.773Z,0.00
2023-03-27T04:01:26.965Z,0.00
2023-03-27T04:02:27.204Z,0.00
2023-03-27T04:03:27.445Z,0.00
2023-03-27T04:04:27.518Z,0.00
2023-03-27T04:05:27.718Z,0.00
2023-03-27T04:06:27.906Z,0.00
2023-03-27T04:07:28.110Z,0.00
2023-03-27T04:08:28.322Z,0.00
2023-03-27T04:10:27.337Z,0.00
2023-03-27T04:11:27.434Z,0.00
2023-03-27T04:12:28.048Z,0.00
2023-03-27T04:13:27.715Z,0.00
2023-03-27T04:14:27.817Z,0.00
2023-03-27T04:15:27.945Z,0.00
2023-03-27T04:16:28.058Z,0.00
2023-03-27T04:17:28.255Z,0.00
2023-03-27T04:18:28.486Z,0.00
2023-03-27T04:19:28.554Z,0.00
2023-03-27T04:20:28.661Z,0.00
2023-03-27T04:21:28.789Z,0.00
2023-03-27T04:22:28.893Z,0.00
2023-03-27T04:23:29.051Z,0.00
2023-03-27T04:24:29.172Z,0.00
2023-03-27T04:25:29.331Z,0.00
2023-03-27T04:26:29.572Z,0.00
2023-03-27T04:27:29.618Z,0.00
2023-03-27T04:28:29.777Z,0.00
2023-03-27T04:29:29.928Z,0.00
2023-03-27T04:30:30.068Z,0.00
2023-03-27T04:31:30.409Z,0.00
2023-03-27T04:32:30.373Z,0.00
2023-03-27T04:33:30.896Z,0.00
2023-03-27T04:34:30.685Z,0.00
2023-03-27T04:35:30.847Z,0.00
2023-03-27T04:36:31.404Z,0.00
2023-03-27T04:37:31.252Z,0.00
2023-03-27T04:38:31.336Z,0.00
2023-03-27T04:39:31.545Z,0.00
2023-03-27T04:40:31.700Z,0.00
2023-03-27T04:41:31.844Z,0.00
2023-03-27T04:42:31.968Z,0.00
2023-03-27T04:43:32.121Z,0.00
2023-03-27T04:44:32.254Z,0.00
2023-03-27T04:45:32.419Z,0.00
2023-03-27T04:46:32.546Z,5.62
2023-03-27T04:47:32.718Z,5.62
2023-03-27T04:48:32.833Z,5.62
2023-03-27T04:49:32.966Z,5.62
2023-03-27T04:50:33.148Z,5.62
2023-03-27T04:51:33.269Z,5.62
2023-03-27T04:52:33.432Z,5.62
2023-03-27T04:53:33.558Z,5.62
2023-03-27T04:54:33.692Z,11.25
2023-03-27T04:55:33.818Z,11.25
2023-03-27T04:56:33.963Z,11.25
2023-03-27T04:57:34.097Z,11.25
2023-03-27T04:58:36.852Z,11.25
2023-03-27T04:59:34.361Z,16.88
2023-03-27T05:00:34.457Z,16.88
2023-03-27T05:01:34.611Z,16.88
2023-03-27T05:02:34.712Z,16.88
2023-03-27T05:03:35.278Z,22.50
2023-03-27T05:04:35.016Z,22.50
2023-03-27T05:05:35.186Z,22.50
2023-03-27T05:06:35.298Z,28.12
2023-03-27T05:07:35.425Z,28.12
2023-03-27T05:08:35.544Z,33.75
2023-03-27T05:09:35.648Z,33.75
2023-03-27T05:10:35.776Z,33.75
2023-03-27T05:11:35.895Z,33.75
2023-03-27T05:12:36.013Z,39.38
2023-03-27T05:13:36.168Z,39.38
2023-03-27T05:14:36.284Z,39.38
2023-03-27T05:15:36.436Z,45.00
2023-03-27T05:16:36.584Z,45.00
2023-03-27T05:17:36.742Z,45.00
2023-03-27T05:18:36.843Z,50.62
2023-03-27T05:19:37.945Z,50.62
2023-03-27T05:20:37.072Z,56.25
2023-03-27T05:21:37.201Z,56.25
2023-03-27T05:22:37.315Z,61.88
2023-03-27T05:23:37.481Z,61.88
2023-03-27T05:24:37.602Z,61.88
2023-03-27T05:25:37.720Z,67.50
2023-03-27T05:26:38.563Z,67.50
2023-03-27T05:27:37.955Z,73.12
2023-03-27T05:28:38.087Z,73.12
2023-03-27T05:29:46.987Z,78.75
2023-03-27T05:30:39.349Z,84.38
2023-03-27T05:31:38.461Z,84.38
2023-03-27T05:32:38.644Z,84.38
2023-03-27T05:33:38.770Z,84.38
2023-03-27T05:34:38.992Z,90.00
2023-03-27T05:35:39.008Z,95.62
2023-03-27T05:36:39.173Z,95.62
2023-03-27T05:37:39.310Z,101.25
2023-03-27T05:38:39.446Z,101.25
2023-03-27T05:39:39.570Z,106.88
2023-03-27T05:40:39.688Z,112.50
2023-03-27T05:41:39.829Z,118.12
2023-03-27T05:42:39.938Z,123.75
2023-03-27T05:43:40.122Z,185.62
2023-03-27T05:44:40.222Z,253.12
2023-03-27T05:45:40.336Z,320.62
2023-03-27T05:46:40.510Z,348.75
2023-03-27T05:47:40.656Z,331.88
2023-03-27T05:48:40.787Z,315.00
2023-03-27T05:49:40.912Z,320.62
2023-03-27T05:50:41.020Z,337.50
2023-03-27T05:51:47.146Z,348.75
2023-03-27T05:52:42.225Z,331.88
2023-03-27T05:53:41.324Z,275.62
2023-03-27T05:54:41.420Z,247.50
2023-03-27T05:55:41.525Z,281.25
2023-03-27T05:56:41.648Z,292.50
2023-03-27T05:57:41.705Z,281.25
2023-03-27T05:58:41.841Z,292.50
2023-03-27T05:59:41.963Z,315.00
2023-03-27T06:00:42.071Z,348.75
2023-03-27T06:01:42.138Z,382.50
2023-03-27T06:02:42.293Z,371.25
2023-03-27T06:03:42.489Z,382.50
2023-03-27T06:04:42.475Z,326.25
2023-03-27T06:05:42.543Z,354.38
2023-03-27T06:06:42.712Z,427.50
2023-03-27T06:07:43.594Z,331.88
2023-03-27T06:08:42.965Z,315.00
2023-03-27T06:09:43.129Z,360.00
2023-03-27T06:10:43.278Z,382.50
2023-03-27T06:11:43.448Z,450.00
2023-03-27T06:12:43.481Z,393.75
2023-03-27T06:13:43.615Z,315.00
2023-03-27T06:14:43.758Z,393.75
2023-03-27T06:15:43.910Z,489.38
2023-03-27T06:16:44.018Z,478.12
2023-03-27T06:17:44.186Z,534.38
2023-03-27T06:18:44.295Z,748.12
2023-03-27T06:19:48.881Z,1164.38
2023-03-27T06:20:44.549Z,1485.00
2023-03-27T06:21:44.783Z,1687.50
2023-03-27T06:22:44.818Z,1681.88
2023-03-27T06:23:44.874Z,1462.50
2023-03-27T06:24:45.054Z,1282.50
2023-03-27T06:25:45.096Z,1175.62
2023-03-27T06:26:45.188Z,1141.88
2023-03-27T06:27:45.323Z,1153.12
2023-03-27T06:28:45.465Z,1175.62
2023-03-27T06:29:45.452Z,1203.75
2023-03-27T06:30:45.553Z,990.00
2023-03-27T06:31:45.684Z,832.50
2023-03-27T06:32:45.876Z,596.25
2023-03-27T06:33:45.924Z,551.25
2023-03-27T06:34:46.008Z,866.25
2023-03-27T06:35:53.020Z,995.62
2023-03-27T06:36:47.178Z,990.00
2023-03-27T06:37:46.758Z,860.62
2023-03-27T06:38:46.344Z,995.62
2023-03-27T06:39:46.405Z,601.88
2023-03-27T06:40:46.485Z,523.12
2023-03-27T06:41:46.560Z,455.62
2023-03-27T06:42:46.612Z,545.62
2023-03-27T06:43:46.683Z,399.38
2023-03-27T06:44:46.752Z,365.62
2023-03-27T06:45:46.826Z,320.62
2023-03-27T06:46:46.882Z,382.50
2023-03-27T06:47:53.943Z,399.38
2023-03-27T06:48:47.978Z,354.38
2023-03-27T06:49:47.023Z,326.25
2023-03-27T06:50:47.098Z,360.00
2023-03-27T06:51:47.202Z,337.50
2023-03-27T06:52:47.282Z,326.25
2023-03-27T06:53:47.341Z,309.38
2023-03-27T06:54:47.441Z,354.38
2023-03-27T06:55:47.530Z,264.38
2023-03-27T06:56:47.652Z,185.62
2023-03-27T06:57:47.725Z,202.50
2023-03-27T06:58:47.810Z,230.62
2023-03-27T06:59:47.902Z,326.25
2023-03-27T07:00:48.013Z,450.00
2023-03-27T07:01:48.162Z,438.75
2023-03-27T07:02:48.257Z,438.75
2023-03-27T07:03:48.332Z,354.38
2023-03-27T07:05:01.578Z,331.88
2023-03-27T07:05:49.571Z,292.50
2023-03-27T07:06:48.587Z,382.50
2023-03-27T07:07:49.410Z,421.88
2023-03-27T07:08:49.269Z,759.38
2023-03-27T07:09:48.866Z,500.62
2023-03-27T07:10:59.931Z,708.75
2023-03-27T07:11:50.022Z,770.62
2023-03-27T07:12:49.092Z,1625.62
2023-03-27T07:13:49.180Z,1738.12
2023-03-27T07:14:49.284Z,1732.50
2023-03-27T07:15:49.368Z,1766.25
2023-03-27T07:16:49.463Z,1867.50
2023-03-27T07:17:49.713Z,1586.25
2023-03-27T07:18:49.636Z,1771.88
2023-03-27T07:19:49.735Z,2053.12
2023-03-27T07:20:49.788Z,2081.25
2023-03-27T07:21:50.155Z,2013.75
2023-03-27T07:22:49.953Z,1957.50
2023-03-27T07:23:49.998Z,2002.50
2023-03-27T07:24:50.046Z,1833.75
2023-03-27T07:25:50.343Z,2182.50
2023-03-27T07:26:50.150Z,1580.62
2023-03-27T07:27:50.201Z,1231.88
2023-03-27T07:28:50.234Z,641.25
2023-03-27T07:29:50.275Z,365.62
2023-03-27T07:30:50.345Z,399.38
2023-03-27T07:32:50.462Z,2407.50
2023-03-27T07:33:50.572Z,1935.00
2023-03-27T07:34:50.635Z,2435.62
2023-03-27T07:35:50.702Z,731.25
2023-03-27T07:36:50.781Z,433.12
2023-03-27T07:37:50.833Z,2536.88
2023-03-27T07:38:50.846Z,2373.75
2023-03-27T07:39:50.912Z,2244.38
2023-03-27T07:40:50.951Z,1468.12
2023-03-27T07:41:51.007Z,1350.00
2023-03-27T07:42:51.046Z,579.38
2023-03-27T07:43:51.107Z,691.88
2023-03-27T07:44:51.152Z,556.88
2023-03-27T07:45:51.227Z,382.50
2023-03-27T07:46:51.220Z,326.25
2023-03-27T07:47:51.308Z,365.62
2023-03-27T07:48:51.319Z,534.38
2023-03-27T07:49:51.366Z,703.12
2023-03-27T07:50:52.909Z,1597.50
2023-03-27T07:51:51.455Z,1338.75
2023-03-27T07:52:51.497Z,523.12
2023-03-27T07:53:51.541Z,376.88
2023-03-27T07:54:51.616Z,360.00
2023-03-27T07:55:51.687Z,275.62
2023-03-27T07:56:51.859Z,241.88
2023-03-27T07:58:00.964Z,315.00
2023-03-27T07:58:52.962Z,450.00
2023-03-27T07:59:52.005Z,421.88
2023-03-27T08:00:52.097Z,348.75
2023-03-27T08:01:52.146Z,354.38
2023-03-27T08:02:52.314Z,438.75
2023-03-27T08:03:52.513Z,472.50
2023-03-27T08:04:52.521Z,585.00
2023-03-27T08:05:52.483Z,691.88
2023-03-27T08:06:52.558Z,826.88
2023-03-27T08:07:52.595Z,483.75
2023-03-27T08:08:52.695Z,551.25
2023-03-27T08:09:52.765Z,669.38
2023-03-27T08:10:52.825Z,2081.25
2023-03-27T08:11:52.906Z,2553.75
2023-03-27T08:12:52.968Z,2986.88
2023-03-27T08:13:53.032Z,590.62
2023-03-27T08:14:53.114Z,495.00
2023-03-27T08:15:53.155Z,455.62
2023-03-27T08:16:55.833Z,405.00
2023-03-27T08:17:54.333Z,444.38
2023-03-27T08:18:53.357Z,534.38
2023-03-27T08:19:53.428Z,2891.25
2023-03-27T08:20:53.485Z,652.50
2023-03-27T08:21:53.519Z,652.50
2023-03-27T08:22:53.578Z,2835.00
2023-03-27T08:23:54.442Z,607.50
2023-03-27T08:24:53.733Z,618.75
2023-03-27T08:25:53.996Z,658.12
2023-03-27T08:26:53.889Z,646.88
2023-03-27T08:27:53.953Z,1018.12
2023-03-27T08:28:54.047Z,382.50
2023-03-27T08:29:54.076Z,433.12
2023-03-27T08:30:54.187Z,556.88
2023-03-27T08:31:55.185Z,528.75
2023-03-27T08:32:54.358Z,517.50
2023-03-27T08:33:54.375Z,562.50
2023-03-27T08:34:54.416Z,618.75
2023-03-27T08:35:54.542Z,613.12
2023-03-27T08:36:54.558Z,556.88
2023-03-27T08:37:54.609Z,500.62
2023-03-27T08:38:54.723Z,545.62
2023-03-27T08:39:54.771Z,669.38
2023-03-27T08:40:54.826Z,832.50
2023-03-27T08:41:54.930Z,2660.62
2023-03-27T08:42:54.995Z,810.00
2023-03-27T08:43:55.053Z,798.75
2023-03-27T08:44:55.126Z,618.75
2023-03-27T08:45:55.471Z,641.25
2023-03-27T08:46:55.374Z,691.88
2023-03-27T08:47:55.426Z,523.12
2023-03-27T08:48:55.470Z,399.38
2023-03-27T08:49:56.447Z,399.38
2023-03-27T08:50:55.618Z,618.75
2023-03-27T08:51:55.654Z,596.25
2023-03-27T08:52:55.837Z,641.25
2023-03-27T08:53:55.913Z,810.00
2023-03-27T08:54:55.982Z,2351.25
2023-03-27T08:55:56.193Z,3611.25
2023-03-27T08:56:56.187Z,3740.62
2023-03-27T08:57:56.223Z,3898.12
2023-03-27T08:58:56.293Z,1642.50
2023-03-27T08:59:56.326Z,860.62
2023-03-27T09:00:56.360Z,4050.00
2023-03-27T09:01:56.385Z,1546.88
2023-03-27T09:02:56.490Z,4111.88
2023-03-27T09:03:56.518Z,4027.50
2023-03-27T09:04:56.531Z,1316.25
2023-03-27T09:05:56.759Z,2649.38
2023-03-27T09:06:56.649Z,1136.25
2023-03-27T09:07:56.634Z,984.38
2023-03-27T09:08:56.650Z,1057.50
2023-03-27T09:09:56.669Z,3436.88
2023-03-27T09:10:56.682Z,770.62
2023-03-27T09:11:56.779Z,680.62
2023-03-27T09:12:56.845Z,731.25
2023-03-27T09:13:56.915Z,590.62
2023-03-27T09:14:56.918Z,517.50
2023-03-27T09:15:57.137Z,466.88
2023-03-27T09:16:57.045Z,455.62
2023-03-27T09:17:57.084Z,517.50
2023-03-27T09:18:57.099Z,658.12
2023-03-27T09:19:57.164Z,708.75
2023-03-27T09:20:57.161Z,607.50
2023-03-27T09:21:57.187Z,551.25
2023-03-27T09:22:57.231Z,511.88
2023-03-27T09:23:57.272Z,483.75
2023-03-27T09:24:57.331Z,506.25
2023-03-27T09:25:57.560Z,731.25
2023-03-27T09:27:06.812Z,2790.00
2023-03-27T09:27:58.478Z,1473.75
2023-03-27T09:28:57.530Z,596.25
2023-03-27T09:30:05.890Z,607.50
2023-03-27T09:30:58.607Z,3650.62
2023-03-27T09:31:57.628Z,3768.75
2023-03-27T09:32:57.734Z,4050.00
2023-03-27T09:33:57.739Z,4336.88
2023-03-27T09:34:57.865Z,4089.38
2023-03-27T09:35:58.139Z,3363.75
2023-03-27T09:36:57.920Z,4145.62
2023-03-27T09:37:57.906Z,4027.50
2023-03-27T09:38:57.936Z,4055.62
2023-03-27T09:39:57.953Z,4359.38
2023-03-27T09:40:57.947Z,2233.12
2023-03-27T09:41:57.929Z,4438.12
2023-03-27T09:42:57.927Z,4258.12
2023-03-27T09:43:57.899Z,4331.25
2023-03-27T09:44:57.872Z,4573.12
2023-03-27T09:45:58.163Z,883.12
2023-03-27T09:46:57.859Z,2148.75
2023-03-27T09:47:57.883Z,4612.50
2023-03-27T09:48:57.834Z,708.75
2023-03-27T09:49:57.811Z,686.25
2023-03-27T09:50:58.003Z,495.00
2023-03-27T09:51:57.735Z,540.00
2023-03-27T09:52:57.777Z,551.25
2023-03-27T09:53:57.785Z,1215.00
2023-03-27T09:54:57.756Z,4201.88
2023-03-27T09:55:57.773Z,4235.62
2023-03-27T09:56:57.794Z,4314.38
2023-03-27T09:57:57.776Z,4466.25
2023-03-27T09:58:57.767Z,4601.25
2023-03-27T09:59:57.749Z,4494.38
2023-03-27T10:00:57.958Z,1125.00
2023-03-27T10:01:57.731Z,770.62
2023-03-27T10:02:57.737Z,646.88
2023-03-27T10:03:57.790Z,556.88
2023-03-27T10:04:57.744Z,517.50
2023-03-27T10:05:57.722Z,607.50
2023-03-27T10:06:57.707Z,641.25
2023-03-27T10:07:57.725Z,624.38
2023-03-27T10:08:57.741Z,568.12
2023-03-27T10:10:04.762Z,613.12
2023-03-27T10:10:58.042Z,832.50
2023-03-27T10:11:59.426Z,4471.88
2023-03-27T10:12:59.417Z,900.00
2023-03-27T10:13:57.736Z,849.38
2023-03-27T10:14:57.766Z,770.62
2023-03-27T10:15:57.776Z,562.50
2023-03-27T10:16:57.818Z,506.25
2023-03-27T10:17:57.916Z,466.88
2023-03-27T10:18:57.891Z,495.00
2023-03-27T10:19:57.890Z,534.38
2023-03-27T10:20:58.109Z,607.50
2023-03-27T10:21:57.977Z,646.88
2023-03-27T10:22:58.003Z,776.25
2023-03-27T10:23:58.015Z,2255.62
2023-03-27T10:24:58.021Z,849.38
2023-03-27T10:25:58.054Z,1327.50
2023-03-27T10:26:58.096Z,3796.88
2023-03-27T10:27:58.092Z,3616.88
2023-03-27T10:28:58.117Z,4331.25
2023-03-27T10:29:58.130Z,4140.00
2023-03-27T10:30:58.421Z,4100.62
2023-03-27T10:31:58.284Z,3830.62
2023-03-27T10:32:58.302Z,3493.12
2023-03-27T10:33:58.248Z,3751.88
2023-03-27T10:34:58.369Z,4297.50
2023-03-27T10:35:58.307Z,973.12
2023-03-27T10:36:58.211Z,1209.38
2023-03-27T10:37:58.292Z,4494.38
2023-03-27T10:38:58.266Z,1597.50
2023-03-27T10:39:58.236Z,4500.00
2023-03-27T10:40:58.447Z,4505.62
2023-03-27T10:41:58.152Z,4325.62
2023-03-27T10:42:58.115Z,3436.88
2023-03-27T10:43:58.085Z,1282.50
2023-03-27T10:44:58.015Z,1743.75
2023-03-27T10:45:57.999Z,4275.00
2023-03-27T10:46:57.980Z,1085.62
2023-03-27T10:47:57.974Z,1051.88
2023-03-27T10:48:57.876Z,1811.25
2023-03-27T10:49:57.830Z,675.00
2023-03-27T10:50:58.123Z,568.12
2023-03-27T10:51:57.757Z,669.38
2023-03-27T10:52:57.792Z,4134.38
2023-03-27T10:53:57.837Z,4348.12
2023-03-27T10:54:57.704Z,4342.50
2023-03-27T10:55:57.669Z,973.12
2023-03-27T10:56:57.698Z,4218.75
2023-03-27T10:57:57.641Z,4342.50
2023-03-27T10:58:57.600Z,1929.38
2023-03-27T10:59:57.558Z,2053.12
2023-03-27T11:00:57.703Z,911.25
2023-03-27T11:01:57.586Z,691.88
2023-03-27T11:02:57.676Z,770.62
2023-03-27T11:03:57.601Z,776.25
2023-03-27T11:04:57.554Z,680.62
2023-03-27T11:05:57.543Z,793.12
2023-03-27T11:06:57.506Z,669.38
2023-03-27T11:07:57.508Z,607.50
2023-03-27T11:08:57.501Z,646.88
2023-03-27T11:09:57.482Z,900.00
2023-03-27T11:10:57.684Z,4151.25
2023-03-27T11:11:57.500Z,4061.25
2023-03-27T11:12:57.495Z,916.88
2023-03-27T11:13:57.526Z,1203.75
2023-03-27T11:14:57.507Z,849.38
2023-03-27T11:15:57.482Z,3690.00
2023-03-27T11:16:57.483Z,3982.50
2023-03-27T11:17:57.511Z,3954.38
2023-03-27T11:18:57.439Z,3954.38
2023-03-27T11:19:57.414Z,4297.50
2023-03-27T11:20:57.583Z,4528.12
2023-03-27T11:21:57.435Z,1170.00
2023-03-27T11:22:57.399Z,3391.88
2023-03-27T11:23:57.411Z,3121.88
2023-03-27T11:24:57.314Z,2874.38
2023-03-27T11:25:57.283Z,1963.12
2023-03-27T11:26:57.236Z,2086.88
2023-03-27T11:27:57.190Z,1552.50
2023-03-27T11:28:57.139Z,1096.88
2023-03-27T11:29:57.127Z,1237.50
2023-03-27T11:30:57.388Z,1040.62
2023-03-27T11:31:57.210Z,3003.75
2023-03-27T11:32:57.134Z,1946.25
2023-03-27T11:33:57.117Z,1260.00
2023-03-27T11:34:57.081Z,945.00
2023-03-27T11:35:57.138Z,2058.75
2023-03-27T11:36:57.090Z,1771.88
2023-03-27T11:37:57.071Z,3515.62
2023-03-27T11:38:57.011Z,3453.75
2023-03-27T11:39:57.023Z,4365.00
2023-03-27T11:40:57.194Z,4370.62
2023-03-27T11:41:56.971Z,4303.12
2023-03-27T11:42:56.935Z,3971.25
2023-03-27T11:43:56.901Z,3785.62
2023-03-27T11:44:56.877Z,3802.50
2023-03-27T11:45:56.850Z,4055.62
2023-03-27T11:46:56.784Z,4140.00
2023-03-27T11:47:56.795Z,4005.00
2023-03-27T11:48:56.697Z,4156.88
2023-03-27T11:49:56.688Z,4556.25
2023-03-27T11:50:56.921Z,4162.50
2023-03-27T11:51:56.591Z,3836.25
2023-03-27T11:52:56.536Z,3931.88
2023-03-27T11:53:56.510Z,3976.88
2023-03-27T11:54:56.430Z,4106.25
2023-03-27T11:55:56.355Z,4421.25
2023-03-27T11:56:56.381Z,4331.25
2023-03-27T11:57:56.313Z,4196.25
2023-03-27T11:58:56.258Z,4201.88
2023-03-27T11:59:56.239Z,4235.62
2023-03-27T12:00:56.309Z,4342.50
2023-03-27T12:01:56.181Z,2908.12
2023-03-27T12:02:56.219Z,4100.62
2023-03-27T12:03:56.164Z,3819.38
2023-03-27T12:04:55.964Z,3465.00
2023-03-27T12:05:55.899Z,2266.88
2023-03-27T12:06:57.043Z,1023.75
2023-03-27T12:07:56.173Z,697.50
2023-03-27T12:08:55.777Z,573.75
2023-03-27T12:09:55.700Z,438.75
2023-03-27T12:10:55.936Z,298.12
2023-03-27T12:11:55.650Z,230.62
2023-03-27T12:12:55.615Z,219.38
2023-03-27T12:14:01.861Z,247.50
2023-03-27T12:14:56.534Z,241.88
2023-03-27T12:15:55.501Z,315.00
2023-03-27T12:16:55.531Z,382.50
2023-03-27T12:17:55.571Z,416.25
2023-03-27T12:19:03.981Z,1985.62
2023-03-27T12:19:56.668Z,3240.00
2023-03-27T12:20:55.682Z,461.25
2023-03-27T12:21:55.697Z,478.12
2023-03-27T12:22:55.695Z,1203.75
2023-03-27T12:23:55.672Z,2593.12
2023-03-27T12:24:59.699Z,3605.62
2023-03-27T12:25:55.682Z,3673.12
2023-03-27T12:26:55.668Z,3780.00
2023-03-27T12:27:55.766Z,3825.00
2023-03-27T12:28:55.744Z,3656.25
2023-03-27T12:29:55.828Z,3836.25
2023-03-27T12:30:55.983Z,3847.50
2023-03-27T12:31:55.886Z,3549.38
2023-03-27T12:32:57.195Z,3678.75
2023-03-27T12:33:55.822Z,3892.50
2023-03-27T12:34:55.781Z,3836.25
2023-03-27T12:35:55.773Z,3633.75
2023-03-27T12:36:55.711Z,3420.00
2023-03-27T12:37:55.673Z,3560.62
2023-03-27T12:38:55.617Z,3695.62
2023-03-27T12:39:55.570Z,2655.00
2023-03-27T12:40:55.683Z,506.25
2023-03-27T12:41:55.519Z,1980.00
2023-03-27T12:42:55.463Z,3948.75
2023-03-27T12:43:55.431Z,528.75
2023-03-27T12:44:55.371Z,3701.25
2023-03-27T12:45:55.400Z,3988.12